Time;durP1;ratioP1;P1;durP2;ratioP2;P2;SDS_P1;SDS_P2;PMS_P1;PMS_P2;Temp;Humidity;BMP_temperature;BMP_pressure;BME280_temperature;BME280_humidity;BME280_pressure;Samples;Min_cycle;Max_cycle;Signal;HPM_P1;HPM_P2
2022/03/13 00:00:18;;;;;;;12.10;6.90;;;11.10;82.20;;;;;;4999064;28;20042;-80
2022/03/13 00:02:45;;;;;;;;;;;11.10;82.50;;;;;;4998956;28;20042;-80
2022/03/13 00:05:14;;;;;;;11.75;7.90;;;11.00;82.60;;;;;;4992730;28;19909;-79
2022/03/13 00:07:41;;;;;;;10.20;6.30;;;11.10;82.60;;;;;;4985957;28;20022;-80
2022/03/13 00:10:07;;;;;;;11.32;6.45;;;11.10;83.20;;;;;;4989112;28;20557;-79
2022/03/13 00:12:32;;;;;;;11.57;7.32;;;11.10;82.50;;;;;;4993320;28;20037;-79
2022/03/13 00:15:03;;;;;;;15.05;7.13;;;11.10;82.40;;;;;;4996399;28;20367;-80
2022/03/13 00:17:30;;;;;;;11.15;6.97;;;11.10;82.30;;;;;;4999455;28;20116;-79
2022/03/13 00:19:58;;;;;;;10.98;7.07;;;11.10;82.20;;;;;;4997495;28;20037;-79
2022/03/13 00:22:24;;;;;;;13.07;7.93;;;11.20;82.20;;;;;;4985697;28;20031;-79
2022/03/13 00:24:49;;;;;;;11.82;7.20;;;11.10;82.00;;;;;;4987427;28;20030;-80
2022/03/13 00:27:15;;;;;;;8.73;5.95;;;11.20;81.90;;;;;;4995557;28;20036;-79
2022/03/13 00:29:41;;;;;;;11.90;7.18;;;11.20;81.90;;;;;;4991997;28;20077;-79
2022/03/13 00:32:07;;;;;;;10.60;6.40;;;11.20;81.90;;;;;;4990286;28;20050;-79
2022/03/13 00:34:33;;;;;;;14.32;6.32;;;11.20;81.90;;;;;;5000831;28;20045;-80
2022/03/13 00:36:59;;;;;;;11.07;6.32;;;11.20;81.90;;;;;;5010053;28;20033;-80
2022/03/13 00:39:25;;;;;;;9.88;5.95;;;11.20;82.00;;;;;;4992538;28;20061;-80
2022/03/13 00:41:51;;;;;;;12.27;6.57;;;11.20;82.20;;;;;;4990624;28;20026;-79
2022/03/13 00:44:16;;;;;;;11.05;6.35;;;11.20;82.20;;;;;;4997772;28;20037;-79
2022/03/13 00:46:43;;;;;;;10.15;6.03;;;11.20;82.40;;;;;;5003043;28;20122;-80
2022/03/13 00:49:08;;;;;;;8.43;5.70;;;11.20;82.60;;;;;;4997621;28;20497;-80
2022/03/13 00:51:34;;;;;;;13.63;7.05;;;11.10;82.70;;;;;;4993807;28;20092;-80
2022/03/13 00:53:59;;;;;;;10.23;6.53;;;11.10;82.80;;;;;;4990293;28;20045;-80
2022/03/13 00:56:25;;;;;;;11.63;6.47;;;11.10;82.80;;;;;;4998896;28;20057;-79
2022/03/13 00:58:50;;;;;;;15.73;7.97;;;11.10;82.80;;;;;;4998034;28;20027;-79
2022/03/13 01:01:17;;;;;;;12.18;7.13;;;11.10;82.80;;;;;;4999009;28;20031;-80
2022/03/13 01:03:42;;;;;;;10.65;6.55;;;11.10;82.80;;;;;;4993381;28;20034;-79
2022/03/13 01:06:09;;;;;;;11.30;6.32;;;11.10;82.90;;;;;;4997977;28;20261;-80
2022/03/13 01:08:35;;;;;;;13.23;7.05;;;11.00;83.00;;;;;;5010604;28;20022;-79
2022/03/13 01:11:02;;;;;;;11.13;6.88;;;11.00;83.10;;;;;;5004939;28;20069;-79
2022/03/13 01:13:30;;;;;;;10.52;6.15;;;11.00;83.10;;;;;;4999289;28;20026;-79
2022/03/13 01:16:09;;;;;;;11.98;7.43;;;11.00;83.10;;;;;;4996876;28;20030;-80
2022/03/13 01:18:39;;;;;;;11.57;6.43;;;11.00;83.20;;;;;;5004348;28;20463;-80
2022/03/13 01:21:05;;;;;;;11.82;6.90;;;11.00;83.20;;;;;;4992807;28;20501;-80
2022/03/13 01:23:30;;;;;;;14.27;7.70;;;11.00;83.40;;;;;;4993495;28;20034;-80
2022/03/13 01:26:22;;;;;;;13.48;8.18;;;10.90;83.40;;;;;;4996076;28;20028;-80
2022/03/13 01:28:50;;;;;;;14.13;8.38;;;10.90;83.50;;;;;;4992521;28;20046;-80
2022/03/13 01:31:16;;;;;;;12.40;7.97;;;10.80;83.70;;;;;;4998570;28;20058;-80
2022/03/13 01:33:41;;;;;;;14.13;8.65;;;10.70;83.80;;;;;;4994655;28;20372;-80
2022/03/13 01:36:07;;;;;;;14.07;7.95;;;10.70;83.90;;;;;;5000840;28;20041;-79
2022/03/13 01:38:33;;;;;;;13.52;8.32;;;10.70;84.00;;;;;;4992352;28;20027;-80
2022/03/13 01:40:59;;;;;;;13.20;8.05;;;10.70;84.00;;;;;;4997956;28;20038;-80
2022/03/13 01:43:25;;;;;;;13.82;7.85;;;10.70;84.00;;;;;;4991746;28;20023;-80
2022/03/13 01:45:52;;;;;;;13.50;8.93;;;10.70;84.10;;;;;;5003453;28;20034;-79
2022/03/13 01:48:17;;;;;;;15.63;9.05;;;10.60;84.20;;;;;;5003231;28;20022;-80
2022/03/13 01:50:43;;;;;;;14.05;8.55;;;10.60;84.30;;;;;;5002781;28;20125;-79
2022/03/13 01:53:09;;;;;;;11.75;8.60;;;10.60;84.50;;;;;;5006820;28;20030;-79
2022/03/13 01:55:34;;;;;;;13.05;8.35;;;10.50;84.60;;;;;;4995977;28;20029;-79
2022/03/13 01:58:01;;;;;;;15.68;9.23;;;10.50;84.90;;;;;;4999385;28;20105;-80
2022/03/13 02:00:26;;;;;;;14.25;8.93;;;10.40;85.20;;;;;;4995308;28;21817;-80
2022/03/13 02:02:52;;;;;;;17.98;10.32;;;10.40;85.50;;;;;;4999712;28;20026;-80
2022/03/13 02:05:34;;;;;;;14.82;9.15;;;10.30;85.60;;;;;;5001952;28;20030;-79
2022/03/13 02:08:10;;;;;;;15.82;9.85;;;10.30;85.60;;;;;;4997121;28;20141;-79
2022/03/13 02:10:36;;;;;;;16.52;9.55;;;10.30;85.70;;;;;;5001420;28;20030;-79
2022/03/13 02:13:01;;;;;;;16.20;9.50;;;10.20;85.90;;;;;;4996198;28;20030;-79
2022/03/13 02:15:30;;;;;;;16.48;10.68;;;10.10;86.10;;;;;;4999250;28;20029;-80
2022/03/13 02:17:56;;;;;;;16.98;9.98;;;10.10;86.30;;;;;;4994393;28;20113;-79
2022/03/13 02:20:25;;;;;;;16.52;9.75;;;10.00;86.50;;;;;;4995595;28;20446;-79
2022/03/13 02:22:53;;;;;;;17.90;10.65;;;10.00;86.70;;;;;;5000876;28;20034;-80
2022/03/13 02:25:22;;;;;;;15.52;9.63;;;10.00;86.90;;;;;;4997412;28;20026;-79
2022/03/13 02:27:48;;;;;;;17.35;10.88;;;10.00;87.10;;;;;;4997996;28;20100;-79
2022/03/13 02:30:14;;;;;;;23.17;10.27;;;10.00;87.20;;;;;;5003358;28;20050;-79
2022/03/13 02:32:39;;;;;;;16.17;10.50;;;9.90;87.30;;;;;;4994846;28;20057;-79
2022/03/13 02:35:05;;;;;;;17.75;10.57;;;9.90;87.50;;;;;;4992055;28;20023;-79
2022/03/13 02:37:41;;;;;;;13.77;9.32;;;9.90;87.60;;;;;;4995217;28;20375;-79
2022/03/13 02:40:14;;;;;;;14.35;9.60;;;9.90;87.80;;;;;;4999376;28;20021;-79
2022/03/13 02:42:39;;;;;;;16.73;10.57;;;9.80;87.80;;;;;;4997116;28;20033;-79
2022/03/13 02:45:05;;;;;;;17.52;10.63;;;9.80;88.10;;;;;;4994312;28;20022;-79
2022/03/13 02:47:31;;;;;;;17.50;10.85;;;9.80;88.20;;;;;;4998514;28;20509;-79
2022/03/13 02:49:56;;;;;;;18.25;10.40;;;9.80;88.30;;;;;;4997042;28;20037;-79
2022/03/13 02:52:22;;;;;;;18.10;10.68;;;9.70;88.40;;;;;;4998579;28;20037;-79
2022/03/13 02:54:48;;;;;;;26.35;11.52;;;9.70;88.50;;;;;;4996736;28;20054;-79
2022/03/13 02:57:14;;;;;;;20.35;11.95;;;9.70;88.50;;;;;;4990727;28;20061;-79
2022/03/13 02:59:40;;;;;;;19.17;11.38;;;9.70;88.70;;;;;;4998818;28;20057;-79
2022/03/13 03:02:06;;;;;;;19.75;11.82;;;9.70;88.80;;;;;;4997035;28;20418;-79
2022/03/13 03:04:32;;;;;;;17.10;10.70;;;9.70;89.00;;;;;;5002375;28;20430;-79
2022/03/13 03:07:03;;;;;;;19.27;11.73;;;9.70;89.10;;;;;;4996276;28;20426;-79
2022/03/13 03:09:32;;;;;;;16.08;10.25;;;9.60;89.20;;;;;;4988436;28;20053;-79
2022/03/13 03:11:59;;;;;;;17.58;11.35;;;9.60;89.20;;;;;;4994084;28;20079;-79
2022/03/13 03:14:24;;;;;;;17.42;10.50;;;9.60;89.40;;;;;;5000474;28;20022;-79
2022/03/13 03:16:50;;;;;;;20.90;11.90;;;9.60;89.40;;;;;;4998295;28;20088;-80
2022/03/13 03:19:16;;;;;;;15.05;10.23;;;9.60;89.50;;;;;;4990478;28;20026;-79
2022/03/13 03:21:41;;;;;;;17.95;10.82;;;9.50;89.60;;;;;;5003254;28;20093;-79
2022/03/13 03:24:18;;;;;;;16.33;9.90;;;9.50;89.80;;;;;;4995494;28;20108;-79
2022/03/13 03:26:46;;;;;;;16.00;9.73;;;9.50;89.90;;;;;;4997416;28;20122;-79
2022/03/13 03:29:13;;;;;;;19.63;11.77;;;9.40;90.00;;;;;;4995484;28;20558;-79
2022/03/13 03:31:41;;;;;;;17.55;10.88;;;9.30;90.20;;;;;;4991870;28;20046;-79
2022/03/13 03:34:09;;;;;;;18.05;10.65;;;9.30;90.30;;;;;;4997386;28;20040;-79
2022/03/13 03:36:39;;;;;;;19.95;11.65;;;9.20;90.40;;;;;;5004641;28;20026;-79
2022/03/13 03:39:06;;;;;;;17.77;11.00;;;9.20;90.40;;;;;;4999857;28;20019;-79
2022/03/13 03:41:32;;;;;;;23.73;12.63;;;9.20;90.50;;;;;;4991716;28;20114;-79
2022/03/13 03:43:58;;;;;;;20.40;11.90;;;9.10;90.50;;;;;;4991735;28;20042;-80
2022/03/13 03:46:24;;;;;;;21.48;12.98;;;9.20;90.50;;;;;;5001004;28;20022;-79
2022/03/13 03:48:50;;;;;;;22.13;13.15;;;9.10;90.40;;;;;;4997154;28;20054;-79
2022/03/13 03:51:15;;;;;;;25.73;14.68;;;9.10;90.40;;;;;;4992055;28;20155;-79
2022/03/13 03:53:41;;;;;;;23.90;14.65;;;9.10;90.20;;;;;;4998936;28;20032;-79
2022/03/13 03:56:06;;;;;;;22.10;13.95;;;9.10;90.20;;;;;;4993018;28;20085;-80
2022/03/13 03:58:32;;;;;;;23.00;13.57;;;9.00;90.20;;;;;;4999190;28;20105;-79
2022/03/13 04:00:57;;;;;;;28.40;14.77;;;9.00;90.20;;;;;;4989770;28;20023;-79
2022/03/13 04:03:23;;;;;;;22.65;13.93;;;9.00;90.10;;;;;;4992367;28;20041;-78
2022/03/13 04:05:49;;;;;;;22.40;14.88;;;9.00;90.00;;;;;;4990773;28;20038;-79
2022/03/13 04:08:15;;;;;;;28.60;16.50;;;9.00;90.00;;;;;;4992913;28;20096;-79
2022/03/13 04:10:40;;;;;;;23.95;14.80;;;9.00;90.00;;;;;;4994894;28;20097;-79
2022/03/13 04:13:06;;;;;;;26.50;15.13;;;9.00;90.00;;;;;;4988449;28;20426;-79
2022/03/13 04:15:31;;;;;;;24.58;14.60;;;8.90;89.90;;;;;;4992518;28;20034;-79
2022/03/13 04:17:57;;;;;;;22.52;14.43;;;8.90;89.90;;;;;;4993365;28;20031;-79
2022/03/13 04:20:24;;;;;;;21.88;14.38;;;8.90;89.80;;;;;;4993634;28;20356;-79
2022/03/13 04:22:49;;;;;;;22.33;14.25;;;8.90;89.80;;;;;;4999993;28;20034;-79
2022/03/13 04:25:15;;;;;;;21.70;13.82;;;8.90;90.20;;;;;;4993789;28;20096;-79
2022/03/13 04:27:41;;;;;;;21.17;13.85;;;8.80;89.80;;;;;;5001084;28;20396;-79
2022/03/13 04:30:08;;;;;;;22.40;14.27;;;8.80;90.10;;;;;;4998609;28;20394;-78
2022/03/13 04:32:34;;;;;;;25.20;14.35;;;8.80;89.50;;;;;;4996089;28;20030;-79
2022/03/13 04:34:59;;;;;;;24.67;14.52;;;8.80;89.40;;;;;;4992163;28;20033;-79
2022/03/13 04:37:27;;;;;;;23.85;13.70;;;8.80;89.20;;;;;;4997684;28;20131;-79
2022/03/13 04:39:53;;;;;;;23.50;14.38;;;8.80;89.10;;;;;;5002716;28;20037;-78
2022/03/13 04:42:19;;;;;;;22.88;14.07;;;8.80;89.00;;;;;;4988694;28;20026;-79
2022/03/13 04:44:45;;;;;;;24.63;14.02;;;8.80;88.80;;;;;;4991660;28;20034;-79
2022/03/13 04:47:10;;;;;;;23.70;14.35;;;8.80;88.70;;;;;;4995114;28;20029;-78
2022/03/13 04:49:36;;;;;;;19.88;13.60;;;8.80;88.70;;;;;;4994248;28;20082;-79
2022/03/13 04:52:02;;;;;;;22.50;12.80;;;8.80;88.60;;;;;;4993748;28;20050;-79
2022/03/13 04:54:27;;;;;;;24.92;14.07;;;8.80;88.50;;;;;;4996324;28;20039;-79
2022/03/13 04:56:53;;;;;;;24.48;15.15;;;8.80;88.60;;;;;;4994416;28;20022;-79
2022/03/13 04:59:18;;;;;;;23.60;13.48;;;8.70;88.40;;;;;;4993711;28;20065;-79
2022/03/13 05:01:44;;;;;;;28.33;14.02;;;8.70;88.30;;;;;;4992957;28;20034;-79
2022/03/13 05:04:10;;;;;;;20.83;11.98;;;8.70;88.20;;;;;;4992706;28;20475;-79
2022/03/13 05:06:37;;;;;;;20.25;13.27;;;8.70;88.10;;;;;;4990760;28;20039;-79
2022/03/13 05:09:04;;;;;;;24.10;13.18;;;8.70;88.00;;;;;;4997663;28;20104;-79
2022/03/13 05:11:29;;;;;;;20.92;12.85;;;8.70;87.90;;;;;;4991170;28;20038;-79
2022/03/13 05:13:55;;;;;;;18.52;12.05;;;8.70;87.60;;;;;;5001264;28;20041;-79
2022/03/13 05:16:21;;;;;;;21.95;11.90;;;8.70;87.30;;;;;;4992331;28;20041;-79
2022/03/13 05:18:46;;;;;;;22.95;13.15;;;8.70;87.10;;;;;;4987448;28;20057;-79
2022/03/13 05:21:12;;;;;;;21.10;12.15;;;8.80;87.00;;;;;;4994949;28;20298;-80
2022/03/13 05:23:37;;;;;;;19.63;11.35;;;8.80;86.90;;;;;;5002804;28;20443;-80
2022/03/13 05:26:03;;;;;;;17.27;11.98;;;8.80;86.70;;;;;;4999184;28;20101;-79
2022/03/13 05:28:29;;;;;;;20.33;12.07;;;8.80;86.50;;;;;;4995655;28;20062;-79
2022/03/13 05:30:54;;;;;;;17.23;11.02;;;8.80;86.40;;;;;;4998180;28;20498;-79
2022/03/13 05:33:20;;;;;;;21.33;12.50;;;8.80;86.50;;;;;;4996335;28;20029;-79
2022/03/13 05:35:45;;;;;;;18.80;11.82;;;8.80;86.60;;;;;;5004141;28;20096;-79
2022/03/13 05:38:11;;;;;;;19.55;12.60;;;8.80;86.80;;;;;;5003639;28;20030;-79
2022/03/13 05:40:37;;;;;;;20.73;12.85;;;8.80;87.00;;;;;;4996210;28;20406;-79
2022/03/13 05:43:04;;;;;;;30.05;12.85;;;8.70;87.20;;;;;;4988407;28;20014;-79
2022/03/13 05:45:30;;;;;;;23.35;13.38;;;8.70;87.60;;;;;;5002906;28;20026;-79
2022/03/13 05:48:01;;;;;;;22.30;12.77;;;8.60;88.20;;;;;;4999440;28;20488;-79
2022/03/13 05:50:29;;;;;;;20.63;13.35;;;8.60;88.80;;;;;;4989032;28;20164;-79
2022/03/13 05:52:56;;;;;;;19.50;12.48;;;8.50;89.70;;;;;;4994333;28;20050;-79
2022/03/13 05:55:23;;;;;;;20.98;13.10;;;8.40;90.00;;;;;;4993795;28;20053;-80
2022/03/13 05:57:49;;;;;;;20.20;12.75;;;8.40;90.20;;;;;;4993056;28;20042;-79
2022/03/13 06:00:15;;;;;;;20.13;12.38;;;8.30;90.30;;;;;;4989392;28;20061;-79
2022/03/13 06:02:42;;;;;;;20.42;11.80;;;8.20;90.40;;;;;;4990849;28;20026;-79
2022/03/13 06:05:11;;;;;;;22.10;12.32;;;8.20;90.40;;;;;;4995882;28;20366;-79
2022/03/13 06:07:37;;;;;;;18.67;11.50;;;8.20;90.40;;;;;;4994361;28;20026;-79
2022/03/13 06:10:04;;;;;;;20.30;12.32;;;8.20;90.40;;;;;;4999830;28;20030;-79
2022/03/13 06:12:30;;;;;;;19.90;12.63;;;8.20;90.40;;;;;;4991768;28;20129;-79
2022/03/13 06:15:00;;;;;;;17.77;11.18;;;8.20;90.50;;;;;;4995189;28;20391;-80
2022/03/13 06:17:26;;;;;;;20.00;12.05;;;8.20;90.40;;;;;;4993067;28;20030;-80
2022/03/13 06:19:52;;;;;;;19.02;12.00;;;8.20;90.40;;;;;;4992222;28;20022;-79
2022/03/13 06:22:19;;;;;;;16.67;10.82;;;8.20;90.30;;;;;;5000748;28;20038;-79
2022/03/13 06:24:45;;;;;;;19.05;12.10;;;8.10;90.20;;;;;;4995161;28;20015;-78
2022/03/13 06:27:11;;;;;;;19.58;10.50;;;8.20;90.40;;;;;;4991784;28;20401;-78
2022/03/13 06:29:38;;;;;;;16.90;11.10;;;8.20;90.10;;;;;;4988436;28;20034;-79
2022/03/13 06:32:04;;;;;;;16.85;10.30;;;8.10;89.90;;;;;;4981454;28;20104;-79
2022/03/13 06:34:29;;;;;;;18.20;11.20;;;8.10;89.50;;;;;;4993168;28;20040;-79
2022/03/13 06:36:55;;;;;;;18.48;10.43;;;8.20;89.30;;;;;;4999883;28;20038;-79
2022/03/13 06:39:22;;;;;;;17.58;11.02;;;8.10;89.10;;;;;;4993346;28;20026;-80
2022/03/13 06:41:48;;;;;;;16.52;10.52;;;8.10;89.20;;;;;;4989262;28;20030;-80
2022/03/13 06:44:14;;;;;;;17.27;10.20;;;8.20;89.40;;;;;;4991944;28;20072;-78
2022/03/13 06:46:39;;;;;;;17.73;11.95;;;8.10;89.30;;;;;;4982411;28;20058;-78
2022/03/13 06:49:05;;;;;;;21.85;10.65;;;8.10;89.60;;;;;;4984103;28;20089;-78
2022/03/13 06:51:34;;;;;;;19.73;10.77;;;8.10;89.80;;;;;;4995070;28;20037;-79
2022/03/13 06:54:00;;;;;;;19.25;10.75;;;8.00;89.90;;;;;;5005617;28;20033;-80
2022/03/13 06:56:25;;;;;;;17.35;10.65;;;8.00;90.00;;;;;;4991459;28;20030;-79
2022/03/13 06:58:55;;;;;;;19.02;11.65;;;7.90;90.00;;;;;;4992115;28;20397;-79
2022/03/13 07:01:21;;;;;;;19.55;11.50;;;8.00;90.10;;;;;;4985750;28;20089;-78
2022/03/13 07:03:46;;;;;;;18.30;10.50;;;8.00;90.00;;;;;;4986689;28;20895;-79
2022/03/13 07:06:12;;;;;;;17.48;10.38;;;8.00;89.90;;;;;;4986296;28;20107;-79
2022/03/13 07:08:37;;;;;;;16.75;10.52;;;7.90;89.80;;;;;;4989071;28;20501;-79
2022/03/13 07:11:03;;;;;;;16.02;9.68;;;7.90;89.60;;;;;;4987648;28;20759;-79
2022/03/13 07:13:32;;;;;;;15.65;9.80;;;8.00;89.60;;;;;;4987232;28;20063;-80
2022/03/13 07:16:03;;;;;;;18.98;10.43;;;8.00;89.40;;;;;;4989804;28;20026;-79
2022/03/13 07:18:29;;;;;;;16.90;9.98;;;8.00;89.00;;;;;;4992198;28;20038;-79
2022/03/13 07:20:54;;;;;;;18.48;9.70;;;8.00;88.80;;;;;;4989983;28;20022;-79
2022/03/13 07:23:21;;;;;;;16.67;9.50;;;8.00;88.40;;;;;;4991749;28;20109;-79
2022/03/13 07:25:48;;;;;;;20.92;9.45;;;8.00;87.90;;;;;;4989275;28;20021;-79
2022/03/13 07:28:13;;;;;;;18.70;10.95;;;8.10;87.80;;;;;;4990490;28;20045;-77
2022/03/13 07:30:39;;;;;;;16.38;9.32;;;8.10;87.50;;;;;;4995454;28;20055;-79
2022/03/13 07:33:04;;;;;;;16.70;9.63;;;8.10;87.30;;;;;;4995353;28;20038;-78
2022/03/13 07:35:30;;;;;;;14.57;9.10;;;8.10;86.90;;;;;;4993723;28;20034;-78
2022/03/13 07:37:55;;;;;;;15.93;9.57;;;8.20;86.70;;;;;;4992381;28;20079;-78
2022/03/13 07:40:21;;;;;;;16.45;9.32;;;8.20;86.30;;;;;;4984555;28;20113;-79
2022/03/13 07:42:47;;;;;;;16.73;9.65;;;8.20;85.60;;;;;;4991405;28;20034;-79
2022/03/13 07:45:12;;;;;;;15.52;8.13;;;8.20;85.40;;;;;;4987774;28;20038;-79
2022/03/13 07:47:38;;;;;;;18.08;9.82;;;8.30;85.10;;;;;;4994200;28;20030;-78
2022/03/13 07:50:04;;;;;;;16.08;9.82;;;8.30;84.50;;;;;;4998856;28;20030;-78
2022/03/13 07:52:30;;;;;;;18.42;9.98;;;8.30;84.20;;;;;;4991739;28;20390;-78
2022/03/13 07:54:55;;;;;;;16.58;9.60;;;8.30;84.20;;;;;;4989285;28;20019;-77
2022/03/13 07:57:21;;;;;;;16.00;8.65;;;8.40;84.10;;;;;;4986056;28;20040;-79
2022/03/13 07:59:49;;;;;;;16.08;9.48;;;8.40;83.80;;;;;;5003950;28;20105;-80
2022/03/13 08:02:15;;;;;;;17.90;9.27;;;8.50;83.20;;;;;;4986793;28;20034;-79
2022/03/13 08:04:41;;;;;;;18.05;9.25;;;8.60;83.10;;;;;;4986575;28;20028;-81
2022/03/13 08:07:07;;;;;;;15.40;8.77;;;8.60;82.40;;;;;;4990643;28;20397;-78
2022/03/13 08:09:34;;;;;;;19.30;9.00;;;8.60;82.20;;;;;;4982511;28;20025;-79
2022/03/13 08:12:00;;;;;;;13.35;8.52;;;8.70;82.00;;;;;;4990037;28;20052;-80
2022/03/13 08:14:26;;;;;;;17.08;9.60;;;8.70;81.60;;;;;;4982547;28;21533;-80
2022/03/13 08:16:52;;;;;;;14.52;9.27;;;8.80;81.40;;;;;;4986960;28;20109;-81
2022/03/13 08:19:17;;;;;;;16.88;9.18;;;8.90;81.00;;;;;;4990666;28;20010;-80
2022/03/13 08:21:43;;;;;;;15.15;9.57;;;9.00;80.30;;;;;;4991138;28;20073;-80
2022/03/13 08:24:09;;;;;;;16.40;9.65;;;9.00;80.00;;;;;;4982060;28;20022;-80
2022/03/13 08:26:40;;;;;;;18.02;9.57;;;9.10;79.50;;;;;;4987424;28;20146;-80
2022/03/13 08:29:06;;;;;;;17.98;9.88;;;9.10;79.30;;;;;;4986579;28;20073;-80
2022/03/13 08:31:33;;;;;;;15.63;9.13;;;9.10;78.60;;;;;;4995790;28;20054;-80
2022/03/13 08:33:59;;;;;;;16.02;9.05;;;9.10;77.70;;;;;;4996386;28;20546;-80
2022/03/13 08:36:25;;;;;;;15.55;9.50;;;9.10;78.10;;;;;;4988653;28;20053;-80
2022/03/13 08:38:50;;;;;;;17.00;8.55;;;9.20;78.10;;;;;;4985768;28;20061;-80
2022/03/13 08:41:16;;;;;;;14.93;8.93;;;9.20;77.60;;;;;;4988974;28;20037;-80
2022/03/13 08:43:42;;;;;;;15.40;9.07;;;9.20;77.50;;;;;;4989706;28;20026;-80
2022/03/13 08:46:10;;;;;;;15.55;8.75;;;9.30;77.60;;;;;;4983787;28;20033;-81
2022/03/13 08:48:35;;;;;;;13.65;8.27;;;9.30;77.10;;;;;;4994130;28;20023;-81
2022/03/13 08:51:02;;;;;;;17.40;9.10;;;9.30;77.00;;;;;;4982760;28;20033;-80
2022/03/13 08:53:27;;;;;;;17.75;9.32;;;9.40;76.40;;;;;;4988700;28;20037;-79
2022/03/13 08:55:53;;;;;;;14.63;8.80;;;9.50;75.90;;;;;;4984854;28;20027;-80
2022/03/13 08:58:19;;;;;;;16.23;8.77;;;9.60;75.90;;;;;;4986009;28;20035;-80
2022/03/13 09:00:44;;;;;;;14.50;8.68;;;9.60;75.70;;;;;;4988142;28;20042;-80
2022/03/13 09:03:10;;;;;;;15.10;10.00;;;9.60;75.50;;;;;;4998734;28;20034;-81
2022/03/13 09:05:35;;;;;;;16.55;9.27;;;9.70;75.40;;;;;;4986830;28;20053;-80
2022/03/13 09:08:01;;;;;;;17.17;8.82;;;9.80;75.30;;;;;;4987453;28;20060;-85
2022/03/13 09:10:27;;;;;;;15.32;10.20;;;10.00;75.10;;;;;;4985869;28;20118;-84
2022/03/13 09:12:52;;;;;;;15.40;9.50;;;10.20;74.80;;;;;;4979035;28;20473;-84
2022/03/13 09:15:18;;;;;;;15.25;9.10;;;10.30;74.50;;;;;;4987580;28;20183;-83
2022/03/13 09:17:44;;;;;;;16.55;9.30;;;10.50;74.10;;;;;;4992794;28;20429;-83
2022/03/13 09:20:11;;;;;;;14.00;8.60;;;10.60;73.40;;;;;;4991731;28;20030;-86
2022/03/13 09:22:36;;;;;;;15.13;9.23;;;10.80;73.30;;;;;;4983836;28;20034;-85
2022/03/13 09:25:03;;;;;;;17.35;9.38;;;11.00;72.90;;;;;;4990976;28;20077;-84
2022/03/13 09:27:30;;;;;;;16.85;9.45;;;11.20;71.80;;;;;;4994650;28;20124;-85
2022/03/13 09:29:57;;;;;;;16.92;9.65;;;11.30;70.70;;;;;;4987783;28;20033;-84
2022/03/13 09:32:23;;;;;;;13.77;8.95;;;11.50;70.50;;;;;;4985832;28;20050;-83
2022/03/13 09:34:49;;;;;;;17.17;10.20;;;11.80;70.60;;;;;;4986830;28;20026;-82
2022/03/13 09:37:16;;;;;;;16.42;10.63;;;12.10;70.10;;;;;;4987018;28;20027;-83
2022/03/13 09:39:42;;;;;;;14.52;9.63;;;12.30;69.00;;;;;;4982683;28;20030;-83
2022/03/13 09:42:07;;;;;;;21.63;10.27;;;12.40;68.80;;;;;;4995702;28;20030;-83
2022/03/13 09:44:33;;;;;;;15.60;10.38;;;12.50;68.70;;;;;;4988226;28;20105;-84
2022/03/13 09:46:59;;;;;;;16.35;10.02;;;12.60;68.10;;;;;;5004399;28;20108;-83
2022/03/13 09:49:24;;;;;;;14.77;9.85;;;12.70;67.90;;;;;;4998665;28;20101;-83
2022/03/13 09:51:51;;;;;;;17.55;10.23;;;12.80;67.80;;;;;;4990499;28;20038;-83
2022/03/13 09:54:17;;;;;;;17.20;10.77;;;12.80;67.70;;;;;;4993783;28;20462;-82
2022/03/13 09:56:42;;;;;;;17.58;10.35;;;12.90;67.50;;;;;;4984759;28;20092;-82
2022/03/13 09:59:08;;;;;;;20.25;10.52;;;12.90;67.40;;;;;;4990839;28;20081;-83
2022/03/13 10:01:33;;;;;;;18.55;11.23;;;12.90;67.40;;;;;;4995214;28;20026;-83
2022/03/13 10:03:59;;;;;;;18.27;10.93;;;12.90;67.10;;;;;;4993226;28;20033;-82
2022/03/13 10:06:26;;;;;;;15.02;10.43;;;13.00;66.80;;;;;;4995113;28;20050;-83
2022/03/13 10:08:51;;;;;;;17.73;11.20;;;13.00;66.90;;;;;;4986233;28;20061;-83
2022/03/13 10:11:31;;;;;;;17.58;11.65;;;13.10;66.30;;;;;;4983349;28;20038;-83
2022/03/13 10:14:10;;;;;;;17.63;11.18;;;13.20;66.20;;;;;;4985196;28;20026;-82
2022/03/13 10:16:39;;;;;;;16.40;10.43;;;13.20;65.70;;;;;;4993264;28;20113;-83
2022/03/13 10:19:18;;;;;;;18.70;10.48;;;13.30;65.50;;;;;;4991967;28;20089;-82
2022/03/13 10:22:05;;;;;;;16.35;10.45;;;13.30;65.60;;;;;;4996591;28;20030;-82
2022/03/13 10:24:40;;;;;;;15.85;10.63;;;13.30;65.70;;;;;;4984970;28;20081;-82
2022/03/13 10:27:17;;;;;;;17.88;11.05;;;13.40;65.40;;;;;;4994495;28;20026;-82
2022/03/13 10:29:45;;;;;;;18.77;11.43;;;13.50;65.50;;;;;;4988658;28;20038;-82
2022/03/13 10:32:11;;;;;;;19.77;10.75;;;13.60;65.50;;;;;;4986449;28;20061;-82
2022/03/13 10:34:38;;;;;;;17.40;11.30;;;13.60;65.10;;;;;;4981157;28;20537;-82
2022/03/13 10:37:04;;;;;;;16.05;10.95;;;13.70;65.50;;;;;;4983904;28;20050;-82
2022/03/13 10:39:31;;;;;;;16.95;11.05;;;13.70;65.30;;;;;;4989638;28;20118;-82
2022/03/13 10:42:04;;;;;;;17.83;10.40;;;13.70;64.80;;;;;;4994849;28;20403;-82
2022/03/13 10:44:42;;;;;;;16.33;10.15;;;13.70;65.00;;;;;;4990011;28;20101;-82
2022/03/13 10:47:10;;;;;;;15.02;10.57;;;13.80;65.20;;;;;;4990906;28;20100;-81
2022/03/13 10:49:45;;;;;;;25.30;12.48;;;13.90;64.70;;;;;;4987587;28;20045;-81
2022/03/13 10:52:31;;;;;;;18.30;10.65;;;13.90;64.60;;;;;;4992516;28;20049;-82
2022/03/13 10:55:15;;;;;;;17.83;10.52;;;14.10;65.50;;;;;;4988854;28;20432;-81
2022/03/13 10:57:49;;;;;;;15.90;10.50;;;14.20;64.90;;;;;;4994927;28;20116;-82
2022/03/13 11:00:16;;;;;;;15.98;10.45;;;14.30;64.60;;;;;;4995717;28;20117;-82
2022/03/13 11:02:42;;;;;;;16.08;10.98;;;14.30;64.50;;;;;;4995779;28;20034;-83
2022/03/13 11:05:11;;;;;;;16.23;10.60;;;14.50;64.10;;;;;;4990492;28;20395;-82
2022/03/13 11:07:36;;;;;;;17.13;10.93;;;14.50;64.30;;;;;;5002589;28;20038;-83
2022/03/13 11:10:03;;;;;;;16.88;10.90;;;14.50;63.60;;;;;;4985820;28;20460;-83
2022/03/13 11:12:30;;;;;;;18.30;10.93;;;14.60;64.40;;;;;;4990681;28;20045;-83
2022/03/13 11:15:01;;;;;;;18.17;11.30;;;14.70;64.50;;;;;;4992388;28;20017;-83
2022/03/13 11:17:34;;;;;;;19.35;11.32;;;14.80;63.60;;;;;;4999281;28;20027;-83
2022/03/13 11:20:01;;;;;;;17.20;9.70;;;14.80;63.40;;;;;;5000665;28;20038;-83
2022/03/13 11:22:28;;;;;;;16.23;11.20;;;14.90;63.50;;;;;;4987761;28;20406;-82
2022/03/13 11:25:00;;;;;;;20.10;11.32;;;15.00;63.70;;;;;;4996094;28;20101;-83
2022/03/13 11:27:26;;;;;;;14.75;10.40;;;15.10;63.20;;;;;;4990608;28;20030;-82
2022/03/13 11:29:54;;;;;;;15.23;9.82;;;15.10;63.20;;;;;;4993512;28;20722;-82
2022/03/13 11:32:42;;;;;;;19.50;10.23;;;15.20;63.40;;;;;;4991789;28;20048;-82
2022/03/13 11:35:11;;;;;;;16.75;11.18;;;15.30;63.10;;;;;;4990609;28;20027;-83
2022/03/13 11:37:37;;;;;;;18.80;10.43;;;15.40;63.30;;;;;;4991960;28;20030;-83
2022/03/13 11:40:05;;;;;;;17.45;9.85;;;15.50;63.20;;;;;;4994827;28;20136;-83
2022/03/13 11:42:47;;;;;;;14.00;10.02;;;15.50;62.70;;;;;;4993985;28;20073;-83
2022/03/13 11:45:49;;;;;;;18.27;9.75;;;15.50;63.40;;;;;;4987344;28;20018;-82
2022/03/13 11:48:21;;;;;;;14.15;8.57;;;15.60;63.70;;;;;;4993060;28;20038;-83
2022/03/13 11:50:55;;;;;;;12.95;8.93;;;15.70;63.60;;;;;;4991410;28;20112;-83
2022/03/13 11:53:26;;;;;;;13.35;8.60;;;15.80;62.80;;;;;;4983601;28;20207;-82
2022/03/13 11:55:57;;;;;;;15.00;9.20;;;15.70;62.30;;;;;;4986545;28;20394;-82
2022/03/13 11:58:43;;;;;;;15.35;8.88;;;15.70;62.40;;;;;;4991384;28;20129;-82
2022/03/13 12:01:19;;;;;;;14.38;8.85;;;15.80;62.30;;;;;;4992497;28;20437;-82
2022/03/13 12:04:07;;;;;;;14.50;8.75;;;15.80;62.20;;;;;;4985972;28;20019;-82
2022/03/13 12:06:47;;;;;;;11.82;8.15;;;16.00;62.30;;;;;;4991411;28;20034;-81
2022/03/13 12:09:20;;;;;;;10.80;7.13;;;16.10;62.70;;;;;;4991243;28;20022;-83
2022/03/13 12:12:00;;;;;;;12.68;8.00;;;16.20;61.80;;;;;;5008391;28;20049;-83
2022/03/13 12:14:49;;;;;;;9.95;7.53;;;16.30;61.60;;;;;;4995201;28;20022;-82
2022/03/13 12:17:15;;;;;;;11.35;7.47;;;16.30;61.60;;;;;;4999889;28;20030;-83
2022/03/13 12:19:41;;;;;;;10.80;6.95;;;16.30;61.70;;;;;;4997997;28;20435;-82
2022/03/13 12:22:07;;;;;;;11.65;7.18;;;16.50;62.00;;;;;;4991984;28;20077;-82
2022/03/13 12:24:33;;;;;;;12.95;8.00;;;16.60;61.60;;;;;;4989816;28;20122;-82
2022/03/13 12:27:03;;;;;;;11.43;7.05;;;16.60;60.80;;;;;;4988367;28;20031;-82
2022/03/13 12:29:32;;;;;;;11.40;6.85;;;16.60;60.90;;;;;;4998646;28;20036;-82
2022/03/13 12:31:59;;;;;;;10.90;7.07;;;16.70;60.30;;;;;;4996455;28;20049;-82
2022/03/13 12:34:31;;;;;;;11.45;7.28;;;16.60;60.90;;;;;;4991144;28;20022;-82
2022/03/13 12:37:02;;;;;;;12.93;7.93;;;16.70;60.70;;;;;;4992735;28;20045;-82
2022/03/13 12:39:28;;;;;;;11.60;7.53;;;16.70;60.40;;;;;;4992891;28;20041;-82